sensor_id;sensor_type;location;lat;lon;timestamp;P1;durP1;ratioP1;P2;durP2;ratioP2
41739;SDS011;27422;52.444;13.300;2023-03-04T00:01:10;26.20;;;11.30;;
41739;SDS011;27422;52.444;13.300;2023-03-04T00:03:35;27.95;;;11.10;;
41739;SDS011;27422;52.444;13.300;2023-03-04T00:06:01;27.40;;;12.02;;
41739;SDS011;27422;52.444;13.300;2023-03-04T00:08:26;33.70;;;13.52;;
41739;SDS011;27422;52.444;13.300;2023-03-04T00:10:52;28.40;;;12.07;;
41739;SDS011;27422;52.444;13.300;2023-03-04T00:13:18;30.60;;;11.77;;
41739;SDS011;27422;52.444;13.300;2023-03-04T00:15:45;27.75;;;12.00;;
41739;SDS011;27422;52.444;13.300;2023-03-04T00:18:11;34.17;;;13.02;;
41739;SDS011;27422;52.444;13.300;2023-03-04T00:20:36;30.75;;;12.23;;
41739;SDS011;27422;52.444;13.300;2023-03-04T00:23:02;30.20;;;12.50;;
41739;SDS011;27422;52.444;13.300;2023-03-04T00:25:27;25.45;;;10.88;;
41739;SDS011;27422;52.444;13.300;2023-03-04T00:27:53;27.30;;;12.07;;
41739;SDS011;27422;52.444;13.300;2023-03-04T00:30:18;31.42;;;12.77;;
41739;SDS011;27422;52.444;13.300;2023-03-04T00:32:43;29.33;;;11.77;;
41739;SDS011;27422;52.444;13.300;2023-03-04T00:35:09;29.42;;;12.10;;
41739;SDS011;27422;52.444;13.300;2023-03-04T00:37:34;27.70;;;11.32;;
41739;SDS011;27422;52.444;13.300;2023-03-04T00:40:00;37.10;;;12.50;;
41739;SDS011;27422;52.444;13.300;2023-03-04T00:42:25;22.75;;;10.95;;
41739;SDS011;27422;52.444;13.300;2023-03-04T00:44:50;30.25;;;11.18;;
41739;SDS011;27422;52.444;13.300;2023-03-04T00:47:16;29.85;;;11.27;;
41739;SDS011;27422;52.444;13.300;2023-03-04T00:49:41;30.42;;;11.68;;
41739;SDS011;27422;52.444;13.300;2023-03-04T00:52:07;26.77;;;10.77;;
41739;SDS011;27422;52.444;13.300;2023-03-04T00:54:32;26.20;;;11.18;;
41739;SDS011;27422;52.444;13.300;2023-03-04T00:56:57;28.55;;;10.93;;
41739;SDS011;27422;52.444;13.300;2023-03-04T00:59:23;26.88;;;10.15;;
41739;SDS011;27422;52.444;13.300;2023-03-04T01:01:48;23.05;;;10.77;;
41739;SDS011;27422;52.444;13.300;2023-03-04T01:04:13;24.85;;;10.15;;
41739;SDS011;27422;52.444;13.300;2023-03-04T01:06:39;27.35;;;10.23;;
41739;SDS011;27422;52.444;13.300;2023-03-04T01:09:04;25.58;;;9.75;;
41739;SDS011;27422;52.444;13.300;2023-03-04T01:11:30;25.73;;;10.45;;
41739;SDS011;27422;52.444;13.300;2023-03-04T01:13:55;26.90;;;10.43;;
41739;SDS011;27422;52.444;13.300;2023-03-04T01:16:20;26.88;;;10.23;;
41739;SDS011;27422;52.444;13.300;2023-03-04T01:18:46;25.65;;;10.27;;
41739;SDS011;27422;52.444;13.300;2023-03-04T01:21:11;23.00;;;8.77;;
41739;SDS011;27422;52.444;13.300;2023-03-04T01:23:37;22.85;;;8.48;;
41739;SDS011;27422;52.444;13.300;2023-03-04T01:26:03;28.17;;;9.88;;
41739;SDS011;27422;52.444;13.300;2023-03-04T01:28:28;24.50;;;9.10;;
41739;SDS011;27422;52.444;13.300;2023-03-04T01:30:54;21.70;;;8.82;;
41739;SDS011;27422;52.444;13.300;2023-03-04T01:33:19;25.63;;;8.82;;
41739;SDS011;27422;52.444;13.300;2023-03-04T01:35:44;22.77;;;8.45;;
41739;SDS011;27422;52.444;13.300;2023-03-04T01:38:10;21.52;;;8.50;;
41739;SDS011;27422;52.444;13.300;2023-03-04T01:40:36;24.25;;;9.48;;
41739;SDS011;27422;52.444;13.300;2023-03-04T01:43:02;23.17;;;8.63;;
41739;SDS011;27422;52.444;13.300;2023-03-04T01:45:27;24.42;;;8.43;;
41739;SDS011;27422;52.444;13.300;2023-03-04T01:47:53;25.15;;;8.40;;
41739;SDS011;27422;52.444;13.300;2023-03-04T01:50:21;19.10;;;7.18;;
41739;SDS011;27422;52.444;13.300;2023-03-04T01:52:50;21.67;;;7.30;;
41739;SDS011;27422;52.444;13.300;2023-03-04T01:55:16;22.20;;;7.30;;
41739;SDS011;27422;52.444;13.300;2023-03-04T01:57:43;22.13;;;7.05;;
41739;SDS011;27422;52.444;13.300;2023-03-04T02:02:43;15.20;;;6.57;;
41739;SDS011;27422;52.444;13.300;2023-03-04T02:05:09;20.88;;;6.45;;
41739;SDS011;27422;52.444;13.300;2023-03-04T02:07:35;23.77;;;7.35;;
41739;SDS011;27422;52.444;13.300;2023-03-04T02:10:00;20.20;;;7.00;;
41739;SDS011;27422;52.444;13.300;2023-03-04T02:12:26;16.77;;;6.15;;
41739;SDS011;27422;52.444;13.300;2023-03-04T02:14:51;25.33;;;6.97;;
41739;SDS011;27422;52.444;13.300;2023-03-04T02:17:23;14.98;;;6.22;;
41739;SDS011;27422;52.444;13.300;2023-03-04T02:19:50;15.10;;;5.88;;
41739;SDS011;27422;52.444;13.300;2023-03-04T02:22:20;19.77;;;6.78;;
41739;SDS011;27422;52.444;13.300;2023-03-04T02:24:51;18.45;;;6.43;;
41739;SDS011;27422;52.444;13.300;2023-03-04T02:27:22;20.30;;;6.00;;
41739;SDS011;27422;52.444;13.300;2023-03-04T02:29:47;17.42;;;5.40;;
41739;SDS011;27422;52.444;13.300;2023-03-04T02:32:13;15.93;;;5.60;;
41739;SDS011;27422;52.444;13.300;2023-03-04T02:34:40;16.80;;;5.47;;
41739;SDS011;27422;52.444;13.300;2023-03-04T02:37:10;19.33;;;6.78;;
41739;SDS011;27422;52.444;13.300;2023-03-04T02:39:39;23.92;;;6.90;;
41739;SDS011;27422;52.444;13.300;2023-03-04T02:42:06;18.38;;;5.28;;
41739;SDS011;27422;52.444;13.300;2023-03-04T02:44:33;22.30;;;5.88;;
41739;SDS011;27422;52.444;13.300;2023-03-04T02:49:26;16.40;;;5.78;;
41739;SDS011;27422;52.444;13.300;2023-03-04T02:51:57;16.80;;;5.85;;
41739;SDS011;27422;52.444;13.300;2023-03-04T02:54:27;16.50;;;5.28;;
41739;SDS011;27422;52.444;13.300;2023-03-04T02:56:55;20.65;;;6.22;;
41739;SDS011;27422;52.444;13.300;2023-03-04T02:59:22;14.35;;;5.55;;
41739;SDS011;27422;52.444;13.300;2023-03-04T03:01:48;15.88;;;5.28;;
41739;SDS011;27422;52.444;13.300;2023-03-04T03:04:13;20.13;;;5.70;;
41739;SDS011;27422;52.444;13.300;2023-03-04T03:06:39;14.95;;;5.47;;
41739;SDS011;27422;52.444;13.300;2023-03-04T03:09:05;14.48;;;4.93;;
41739;SDS011;27422;52.444;13.300;2023-03-04T03:11:31;13.15;;;4.40;;
41739;SDS011;27422;52.444;13.300;2023-03-04T03:13:56;14.88;;;4.63;;
41739;SDS011;27422;52.444;13.300;2023-03-04T03:16:22;15.13;;;5.22;;
41739;SDS011;27422;52.444;13.300;2023-03-04T03:18:47;18.30;;;4.70;;
41739;SDS011;27422;52.444;13.300;2023-03-04T03:21:13;23.42;;;5.18;;
41739;SDS011;27422;52.444;13.300;2023-03-04T03:23:38;17.35;;;5.10;;
41739;SDS011;27422;52.444;13.300;2023-03-04T03:26:04;15.25;;;4.57;;
41739;SDS011;27422;52.444;13.300;2023-03-04T03:28:30;15.85;;;4.60;;
41739;SDS011;27422;52.444;13.300;2023-03-04T03:30:55;14.88;;;5.78;;
41739;SDS011;27422;52.444;13.300;2023-03-04T03:33:21;16.90;;;5.25;;
41739;SDS011;27422;52.444;13.300;2023-03-04T03:35:46;20.85;;;5.88;;
41739;SDS011;27422;52.444;13.300;2023-03-04T03:38:12;11.82;;;4.55;;
41739;SDS011;27422;52.444;13.300;2023-03-04T03:40:37;13.98;;;4.32;;
41739;SDS011;27422;52.444;13.300;2023-03-04T03:43:03;14.65;;;4.63;;
41739;SDS011;27422;52.444;13.300;2023-03-04T03:45:28;13.52;;;4.28;;
41739;SDS011;27422;52.444;13.300;2023-03-04T03:47:54;16.30;;;5.15;;
41739;SDS011;27422;52.444;13.300;2023-03-04T03:50:19;15.13;;;4.70;;
41739;SDS011;27422;52.444;13.300;2023-03-04T03:52:45;17.77;;;5.20;;
41739;SDS011;27422;52.444;13.300;2023-03-04T03:55:10;15.27;;;4.97;;
41739;SDS011;27422;52.444;13.300;2023-03-04T03:57:35;22.27;;;5.00;;
41739;SDS011;27422;52.444;13.300;2023-03-04T04:00:01;13.05;;;4.38;;
41739;SDS011;27422;52.444;13.300;2023-03-04T04:02:26;12.93;;;4.43;;
41739;SDS011;27422;52.444;13.300;2023-03-04T04:04:52;12.90;;;4.10;;
41739;SDS011;27422;52.444;13.300;2023-03-04T04:07:17;16.08;;;4.38;;
41739;SDS011;27422;52.444;13.300;2023-03-04T04:09:43;12.20;;;4.13;;
41739;SDS011;27422;52.444;13.300;2023-03-04T04:12:09;12.63;;;4.32;;
41739;SDS011;27422;52.444;13.300;2023-03-04T04:14:37;14.30;;;4.22;;
41739;SDS011;27422;52.444;13.300;2023-03-04T04:17:02;13.50;;;4.07;;
41739;SDS011;27422;52.444;13.300;2023-03-04T04:19:28;13.52;;;3.90;;
41739;SDS011;27422;52.444;13.300;2023-03-04T04:21:53;10.60;;;3.85;;
41739;SDS011;27422;52.444;13.300;2023-03-04T04:24:19;12.65;;;3.80;;
41739;SDS011;27422;52.444;13.300;2023-03-04T04:26:44;15.75;;;3.58;;
41739;SDS011;27422;52.444;13.300;2023-03-04T04:29:11;12.52;;;3.15;;
41739;SDS011;27422;52.444;13.300;2023-03-04T04:31:38;8.75;;;3.35;;
41739;SDS011;27422;52.444;13.300;2023-03-04T04:34:03;10.32;;;2.97;;
41739;SDS011;27422;52.444;13.300;2023-03-04T04:36:29;15.00;;;3.83;;
41739;SDS011;27422;52.444;13.300;2023-03-04T04:38:54;9.75;;;3.40;;
41739;SDS011;27422;52.444;13.300;2023-03-04T04:41:24;11.35;;;3.33;;
41739;SDS011;27422;52.444;13.300;2023-03-04T04:43:51;14.65;;;3.50;;
41739;SDS011;27422;52.444;13.300;2023-03-04T04:46:16;10.93;;;3.53;;
41739;SDS011;27422;52.444;13.300;2023-03-04T04:48:42;10.52;;;3.25;;
41739;SDS011;27422;52.444;13.300;2023-03-04T04:51:07;12.32;;;3.17;;
41739;SDS011;27422;52.444;13.300;2023-03-04T04:53:33;10.20;;;3.03;;
41739;SDS011;27422;52.444;13.300;2023-03-04T04:55:59;13.18;;;3.05;;
41739;SDS011;27422;52.444;13.300;2023-03-04T04:58:24;9.63;;;3.22;;
41739;SDS011;27422;52.444;13.300;2023-03-04T05:00:50;11.40;;;2.85;;
41739;SDS011;27422;52.444;13.300;2023-03-04T05:03:15;10.35;;;2.90;;
41739;SDS011;27422;52.444;13.300;2023-03-04T05:05:41;13.10;;;3.30;;
41739;SDS011;27422;52.444;13.300;2023-03-04T05:08:06;14.45;;;3.03;;
41739;SDS011;27422;52.444;13.300;2023-03-04T05:10:31;10.85;;;3.17;;
41739;SDS011;27422;52.444;13.300;2023-03-04T05:12:57;16.92;;;3.00;;
41739;SDS011;27422;52.444;13.300;2023-03-04T05:15:22;13.27;;;3.05;;
41739;SDS011;27422;52.444;13.300;2023-03-04T05:17:47;14.52;;;3.03;;
41739;SDS011;27422;52.444;13.300;2023-03-04T05:20:13;11.65;;;2.85;;
41739;SDS011;27422;52.444;13.300;2023-03-04T05:22:38;11.82;;;2.58;;
41739;SDS011;27422;52.444;13.300;2023-03-04T05:25:04;9.30;;;2.60;;
41739;SDS011;27422;52.444;13.300;2023-03-04T05:27:31;13.02;;;3.08;;
41739;SDS011;27422;52.444;13.300;2023-03-04T05:29:56;8.55;;;2.42;;
41739;SDS011;27422;52.444;13.300;2023-03-04T05:32:24;7.50;;;2.53;;
41739;SDS011;27422;52.444;13.300;2023-03-04T05:34:49;10.00;;;2.10;;
41739;SDS011;27422;52.444;13.300;2023-03-04T05:37:15;10.60;;;2.25;;
41739;SDS011;27422;52.444;13.300;2023-03-04T05:39:40;8.60;;;2.28;;
41739;SDS011;27422;52.444;13.300;2023-03-04T05:42:05;7.20;;;2.13;;
41739;SDS011;27422;52.444;13.300;2023-03-04T05:44:31;12.13;;;2.10;;
41739;SDS011;27422;52.444;13.300;2023-03-04T05:46:56;13.10;;;2.85;;
41739;SDS011;27422;52.444;13.300;2023-03-04T05:49:21;9.38;;;2.47;;
41739;SDS011;27422;52.444;13.300;2023-03-04T05:51:47;9.40;;;1.92;;
41739;SDS011;27422;52.444;13.300;2023-03-04T05:54:12;8.68;;;2.28;;
41739;SDS011;27422;52.444;13.300;2023-03-04T05:56:38;8.23;;;2.13;;
41739;SDS011;27422;52.444;13.300;2023-03-04T05:59:03;15.60;;;2.22;;
41739;SDS011;27422;52.444;13.300;2023-03-04T06:01:28;7.82;;;2.35;;
41739;SDS011;27422;52.444;13.300;2023-03-04T06:03:55;8.10;;;2.25;;
41739;SDS011;27422;52.444;13.300;2023-03-04T06:06:20;10.00;;;2.38;;
41739;SDS011;27422;52.444;13.300;2023-03-04T06:08:46;8.18;;;2.25;;
41739;SDS011;27422;52.444;13.300;2023-03-04T06:11:11;10.20;;;2.53;;
41739;SDS011;27422;52.444;13.300;2023-03-04T06:13:36;7.20;;;2.15;;
41739;SDS011;27422;52.444;13.300;2023-03-04T06:16:02;10.85;;;2.45;;
41739;SDS011;27422;52.444;13.300;2023-03-04T06:18:28;10.43;;;2.33;;
41739;SDS011;27422;52.444;13.300;2023-03-04T06:20:57;7.55;;;2.60;;
41739;SDS011;27422;52.444;13.300;2023-03-04T06:23:24;8.98;;;2.35;;
41739;SDS011;27422;52.444;13.300;2023-03-04T06:25:50;9.05;;;2.42;;
41739;SDS011;27422;52.444;13.300;2023-03-04T06:28:16;11.50;;;2.72;;
41739;SDS011;27422;52.444;13.300;2023-03-04T06:30:42;11.13;;;3.00;;
41739;SDS011;27422;52.444;13.300;2023-03-04T06:33:07;8.38;;;2.33;;
41739;SDS011;27422;52.444;13.300;2023-03-04T06:35:33;7.43;;;2.28;;
41739;SDS011;27422;52.444;13.300;2023-03-04T06:37:58;7.53;;;2.30;;
41739;SDS011;27422;52.444;13.300;2023-03-04T06:40:23;10.70;;;2.72;;
41739;SDS011;27422;52.444;13.300;2023-03-04T06:42:49;9.93;;;2.20;;
41739;SDS011;27422;52.444;13.300;2023-03-04T06:45:14;7.88;;;2.22;;
41739;SDS011;27422;52.444;13.300;2023-03-04T06:47:40;7.05;;;2.33;;
41739;SDS011;27422;52.444;13.300;2023-03-04T06:50:05;13.70;;;2.75;;
41739;SDS011;27422;52.444;13.300;2023-03-04T06:52:31;12.23;;;3.35;;
41739;SDS011;27422;52.444;13.300;2023-03-04T06:54:56;9.90;;;2.90;;
41739;SDS011;27422;52.444;13.300;2023-03-04T06:57:22;13.40;;;2.83;;
41739;SDS011;27422;52.444;13.300;2023-03-04T06:59:47;12.82;;;2.50;;
41739;SDS011;27422;52.444;13.300;2023-03-04T07:02:12;14.07;;;3.00;;
41739;SDS011;27422;52.444;13.300;2023-03-04T07:04:38;7.00;;;2.60;;
41739;SDS011;27422;52.444;13.300;2023-03-04T07:07:04;8.57;;;3.10;;
41739;SDS011;27422;52.444;13.300;2023-03-04T07:09:29;11.45;;;2.70;;
41739;SDS011;27422;52.444;13.300;2023-03-04T07:11:55;11.40;;;3.13;;
41739;SDS011;27422;52.444;13.300;2023-03-04T07:14:20;7.75;;;2.42;;
41739;SDS011;27422;52.444;13.300;2023-03-04T07:16:45;8.10;;;2.53;;
41739;SDS011;27422;52.444;13.300;2023-03-04T07:19:11;10.18;;;3.25;;
41739;SDS011;27422;52.444;13.300;2023-03-04T07:21:36;10.95;;;2.85;;
41739;SDS011;27422;52.444;13.300;2023-03-04T07:24:02;8.05;;;2.70;;
41739;SDS011;27422;52.444;13.300;2023-03-04T07:26:27;7.85;;;2.70;;
41739;SDS011;27422;52.444;13.300;2023-03-04T07:28:55;7.70;;;2.70;;
41739;SDS011;27422;52.444;13.300;2023-03-04T07:31:24;7.78;;;2.35;;
41739;SDS011;27422;52.444;13.300;2023-03-04T07:33:54;10.20;;;2.75;;
41739;SDS011;27422;52.444;13.300;2023-03-04T07:36:20;11.50;;;2.83;;
41739;SDS011;27422;52.444;13.300;2023-03-04T07:38:47;7.28;;;2.50;;
41739;SDS011;27422;52.444;13.300;2023-03-04T07:41:13;9.52;;;3.00;;
41739;SDS011;27422;52.444;13.300;2023-03-04T07:43:39;9.82;;;2.90;;
41739;SDS011;27422;52.444;13.300;2023-03-04T07:46:04;8.32;;;2.40;;
41739;SDS011;27422;52.444;13.300;2023-03-04T07:48:30;7.15;;;2.55;;
41739;SDS011;27422;52.444;13.300;2023-03-04T07:51:09;6.95;;;2.90;;
41739;SDS011;27422;52.444;13.300;2023-03-04T07:53:36;8.20;;;2.60;;
41739;SDS011;27422;52.444;13.300;2023-03-04T07:56:04;8.68;;;2.67;;
41739;SDS011;27422;52.444;13.300;2023-03-04T07:58:30;6.93;;;2.00;;
41739;SDS011;27422;52.444;13.300;2023-03-04T08:00:55;8.32;;;2.35;;
41739;SDS011;27422;52.444;13.300;2023-03-04T08:03:21;6.38;;;2.75;;
41739;SDS011;27422;52.444;13.300;2023-03-04T08:05:47;5.25;;;2.20;;
41739;SDS011;27422;52.444;13.300;2023-03-04T08:08:12;9.27;;;2.60;;
41739;SDS011;27422;52.444;13.300;2023-03-04T08:10:37;7.75;;;2.20;;
41739;SDS011;27422;52.444;13.300;2023-03-04T08:13:04;6.97;;;2.58;;
41739;SDS011;27422;52.444;13.300;2023-03-04T08:15:31;10.40;;;2.33;;
41739;SDS011;27422;52.444;13.300;2023-03-04T08:17:57;7.82;;;2.38;;
41739;SDS011;27422;52.444;13.300;2023-03-04T08:20:22;4.85;;;1.90;;
41739;SDS011;27422;52.444;13.300;2023-03-04T08:22:48;8.43;;;2.42;;
41739;SDS011;27422;52.444;13.300;2023-03-04T08:25:13;7.43;;;2.88;;
41739;SDS011;27422;52.444;13.300;2023-03-04T08:27:39;6.68;;;2.30;;
41739;SDS011;27422;52.444;13.300;2023-03-04T08:30:04;6.65;;;2.17;;
41739;SDS011;27422;52.444;13.300;2023-03-04T08:32:30;6.20;;;2.22;;
41739;SDS011;27422;52.444;13.300;2023-03-04T08:34:55;9.13;;;2.45;;
41739;SDS011;27422;52.444;13.300;2023-03-04T08:37:21;6.22;;;2.10;;
41739;SDS011;27422;52.444;13.300;2023-03-04T08:39:47;7.72;;;2.13;;
41739;SDS011;27422;52.444;13.300;2023-03-04T08:42:12;6.30;;;2.25;;
41739;SDS011;27422;52.444;13.300;2023-03-04T08:44:38;7.35;;;2.03;;
41739;SDS011;27422;52.444;13.300;2023-03-04T08:47:03;9.48;;;1.80;;
41739;SDS011;27422;52.444;13.300;2023-03-04T08:49:29;4.88;;;1.92;;
41739;SDS011;27422;52.444;13.300;2023-03-04T08:51:54;4.57;;;1.77;;
41739;SDS011;27422;52.444;13.300;2023-03-04T08:54:19;7.80;;;2.08;;
41739;SDS011;27422;52.444;13.300;2023-03-04T08:57:05;6.60;;;2.08;;
41739;SDS011;27422;52.444;13.300;2023-03-04T08:59:31;6.63;;;2.05;;
41739;SDS011;27422;52.444;13.300;2023-03-04T09:01:57;6.28;;;1.80;;
41739;SDS011;27422;52.444;13.300;2023-03-04T09:04:22;7.68;;;1.75;;
41739;SDS011;27422;52.444;13.300;2023-03-04T09:06:48;7.05;;;2.00;;
41739;SDS011;27422;52.444;13.300;2023-03-04T09:09:14;7.93;;;2.00;;
41739;SDS011;27422;52.444;13.300;2023-03-04T09:11:39;7.57;;;2.10;;
41739;SDS011;27422;52.444;13.300;2023-03-04T09:14:04;6.30;;;1.85;;
41739;SDS011;27422;52.444;13.300;2023-03-04T09:16:30;6.22;;;1.92;;
41739;SDS011;27422;52.444;13.300;2023-03-04T09:18:55;4.82;;;1.92;;
41739;SDS011;27422;52.444;13.300;2023-03-04T09:21:21;4.82;;;2.00;;
41739;SDS011;27422;52.444;13.300;2023-03-04T09:23:46;7.45;;;1.55;;
41739;SDS011;27422;52.444;13.300;2023-03-04T09:26:13;5.07;;;2.17;;
41739;SDS011;27422;52.444;13.300;2023-03-04T09:28:49;5.47;;;1.98;;
41739;SDS011;27422;52.444;13.300;2023-03-04T09:31:15;5.18;;;1.70;;
41739;SDS011;27422;52.444;13.300;2023-03-04T09:33:40;8.10;;;1.80;;
41739;SDS011;27422;52.444;13.300;2023-03-04T09:36:08;7.50;;;2.22;;
41739;SDS011;27422;52.444;13.300;2023-03-04T09:38:34;5.85;;;1.80;;
41739;SDS011;27422;52.444;13.300;2023-03-04T09:41:21;6.95;;;2.00;;
41739;SDS011;27422;52.444;13.300;2023-03-04T09:43:51;8.32;;;1.45;;
41739;SDS011;27422;52.444;13.300;2023-03-04T09:46:19;5.75;;;1.27;;
41739;SDS011;27422;52.444;13.300;2023-03-04T09:49:08;8.45;;;1.63;;
41739;SDS011;27422;52.444;13.300;2023-03-04T10:00:02;7.63;;;1.33;;
41739;SDS011;27422;52.444;13.300;2023-03-04T10:02:39;6.13;;;1.13;;
41739;SDS011;27422;52.444;13.300;2023-03-04T10:05:25;6.53;;;1.30;;
41739;SDS011;27422;52.444;13.300;2023-03-04T10:07:55;7.25;;;1.35;;
41739;SDS011;27422;52.444;13.300;2023-03-04T10:10:35;2.92;;;0.80;;
41739;SDS011;27422;52.444;13.300;2023-03-04T10:13:02;8.18;;;1.17;;
41739;SDS011;27422;52.444;13.300;2023-03-04T10:15:38;5.97;;;1.20;;
41739;SDS011;27422;52.444;13.300;2023-03-04T10:21:05;8.10;;;1.33;;
41739;SDS011;27422;52.444;13.300;2023-03-04T10:23:38;6.43;;;1.25;;
41739;SDS011;27422;52.444;13.300;2023-03-04T10:26:12;8.93;;;1.38;;
41739;SDS011;27422;52.444;13.300;2023-03-04T10:28:39;6.95;;;1.35;;
41739;SDS011;27422;52.444;13.300;2023-03-04T10:33:40;4.82;;;1.27;;
41739;SDS011;27422;52.444;13.300;2023-03-04T10:38:52;6.60;;;1.13;;
41739;SDS011;27422;52.444;13.300;2023-03-04T10:41:22;6.95;;;1.02;;
41739;SDS011;27422;52.444;13.300;2023-03-04T10:44:14;8.25;;;1.58;;
41739;SDS011;27422;52.444;13.300;2023-03-04T10:46:42;4.63;;;1.10;;
41739;SDS011;27422;52.444;13.300;2023-03-04T10:49:28;9.70;;;1.27;;
41739;SDS011;27422;52.444;13.300;2023-03-04T10:52:12;7.97;;;1.92;;
41739;SDS011;27422;52.444;13.300;2023-03-04T10:54:42;8.75;;;1.50;;
41739;SDS011;27422;52.444;13.300;2023-03-04T10:57:13;9.77;;;1.40;;
41739;SDS011;27422;52.444;13.300;2023-03-04T11:05:15;10.48;;;1.38;;
41739;SDS011;27422;52.444;13.300;2023-03-04T11:07:36;9.45;;;2.05;;
41739;SDS011;27422;52.444;13.300;2023-03-04T11:10:24;9.13;;;1.48;;
41739;SDS011;27422;52.444;13.300;2023-03-04T11:12:51;10.23;;;1.30;;
41739;SDS011;27422;52.444;13.300;2023-03-04T11:15:21;9.05;;;1.42;;
41739;SDS011;27422;52.444;13.300;2023-03-04T11:17:56;10.23;;;1.40;;
41739;SDS011;27422;52.444;13.300;2023-03-04T11:20:28;8.48;;;1.73;;
41739;SDS011;27422;52.444;13.300;2023-03-04T11:22:56;9.30;;;1.70;;
41739;SDS011;27422;52.444;13.300;2023-03-04T11:25:30;10.45;;;1.70;;
41739;SDS011;27422;52.444;13.300;2023-03-04T11:27:59;6.07;;;1.42;;
41739;SDS011;27422;52.444;13.300;2023-03-04T11:33:12;6.93;;;1.42;;
41739;SDS011;27422;52.444;13.300;2023-03-04T11:38:18;11.02;;;1.73;;
41739;SDS011;27422;52.444;13.300;2023-03-04T11:40:56;7.72;;;1.73;;
41739;SDS011;27422;52.444;13.300;2023-03-04T11:49:05;9.00;;;1.80;;
41739;SDS011;27422;52.444;13.300;2023-03-04T11:51:39;6.88;;;1.52;;
41739;SDS011;27422;52.444;13.300;2023-03-04T11:54:31;7.50;;;1.55;;
41739;SDS011;27422;52.444;13.300;2023-03-04T12:02:31;11.68;;;1.75;;
41739;SDS011;27422;52.444;13.300;2023-03-04T12:05:26;7.68;;;1.90;;
41739;SDS011;27422;52.444;13.300;2023-03-04T12:29:47;11.32;;;2.42;;
41739;SDS011;27422;52.444;13.300;2023-03-04T12:32:26;8.95;;;1.85;;
41739;SDS011;27422;52.444;13.300;2023-03-04T12:35:21;14.07;;;2.67;;
41739;SDS011;27422;52.444;13.300;2023-03-04T12:37:56;4.47;;;1.25;;
41739;SDS011;27422;52.444;13.300;2023-03-04T12:48:46;9.80;;;1.65;;
41739;SDS011;27422;52.444;13.300;2023-03-04T12:51:28;8.13;;;1.38;;
41739;SDS011;27422;52.444;13.300;2023-03-04T12:57:07;11.43;;;1.88;;
41739;SDS011;27422;52.444;13.300;2023-03-04T12:59:39;7.50;;;1.80;;
41739;SDS011;27422;52.444;13.300;2023-03-04T13:04:39;8.77;;;1.35;;
41739;SDS011;27422;52.444;13.300;2023-03-04T13:07:16;10.18;;;1.80;;
41739;SDS011;27422;52.444;13.300;2023-03-04T13:10:07;8.10;;;1.60;;
41739;SDS011;27422;52.444;13.300;2023-03-04T13:17:49;5.40;;;1.13;;
41739;SDS011;27422;52.444;13.300;2023-03-04T13:38:30;7.65;;;1.20;;
41739;SDS011;27422;52.444;13.300;2023-03-04T13:51:15;9.40;;;1.35;;
41739;SDS011;27422;52.444;13.300;2023-03-04T13:59:37;9.32;;;1.40;;
41739;SDS011;27422;52.444;13.300;2023-03-04T14:02:12;7.90;;;1.48;;
41739;SDS011;27422;52.444;13.300;2023-03-04T14:04:44;11.20;;;1.63;;
41739;SDS011;27422;52.444;13.300;2023-03-04T14:07:18;7.78;;;1.65;;
41739;SDS011;27422;52.444;13.300;2023-03-04T14:12:23;6.78;;;1.42;;
41739;SDS011;27422;52.444;13.300;2023-03-04T14:14:50;10.38;;;1.38;;
41739;SDS011;27422;52.444;13.300;2023-03-04T14:17:18;7.60;;;1.50;;
41739;SDS011;27422;52.444;13.300;2023-03-04T14:19:46;8.10;;;1.42;;
41739;SDS011;27422;52.444;13.300;2023-03-04T14:25:18;9.88;;;2.05;;
41739;SDS011;27422;52.444;13.300;2023-03-04T14:27:47;8.48;;;1.50;;
41739;SDS011;27422;52.444;13.300;2023-03-04T14:30:23;9.18;;;1.58;;
41739;SDS011;27422;52.444;13.300;2023-03-04T14:32:51;9.70;;;1.90;;
41739;SDS011;27422;52.444;13.300;2023-03-04T14:35:27;13.55;;;1.70;;
41739;SDS011;27422;52.444;13.300;2023-03-04T14:37:58;7.55;;;1.40;;
41739;SDS011;27422;52.444;13.300;2023-03-04T14:40:28;8.30;;;1.45;;
41739;SDS011;27422;52.444;13.300;2023-03-04T14:43:02;7.93;;;1.70;;
41739;SDS011;27422;52.444;13.300;2023-03-04T14:45:29;13.55;;;1.73;;
41739;SDS011;27422;52.444;13.300;2023-03-04T14:47:56;10.30;;;1.90;;
41739;SDS011;27422;52.444;13.300;2023-03-04T14:50:25;8.02;;;1.30;;
41739;SDS011;27422;52.444;13.300;2023-03-04T14:53:13;8.18;;;1.55;;
41739;SDS011;27422;52.444;13.300;2023-03-04T14:55:53;11.20;;;2.35;;
41739;SDS011;27422;52.444;13.300;2023-03-04T14:58:21;7.95;;;1.60;;
41739;SDS011;27422;52.444;13.300;2023-03-04T15:00:48;9.57;;;1.63;;
41739;SDS011;27422;52.444;13.300;2023-03-04T15:03:26;10.02;;;1.95;;
41739;SDS011;27422;52.444;13.300;2023-03-04T15:05:53;10.85;;;1.80;;
41739;SDS011;27422;52.444;13.300;2023-03-04T15:11:07;7.95;;;1.65;;
41739;SDS011;27422;52.444;13.300;2023-03-04T15:13:49;7.68;;;1.70;;
41739;SDS011;27422;52.444;13.300;2023-03-04T15:16:18;3.25;;;1.30;;
41739;SDS011;27422;52.444;13.300;2023-03-04T15:19:04;7.25;;;1.58;;
41739;SDS011;27422;52.444;13.300;2023-03-04T15:21:44;10.23;;;1.37;;
41739;SDS011;27422;52.444;13.300;2023-03-04T15:24:09;5.95;;;1.65;;
41739;SDS011;27422;52.444;13.300;2023-03-04T15:26:39;8.25;;;1.50;;
41739;SDS011;27422;52.444;13.300;2023-03-04T15:29:10;12.02;;;1.50;;
41739;SDS011;27422;52.444;13.300;2023-03-04T15:31:41;11.55;;;2.05;;
41739;SDS011;27422;52.444;13.300;2023-03-04T15:34:11;9.20;;;1.98;;
41739;SDS011;27422;52.444;13.300;2023-03-04T15:36:38;9.88;;;1.83;;
41739;SDS011;27422;52.444;13.300;2023-03-04T15:39:03;9.13;;;1.80;;
41739;SDS011;27422;52.444;13.300;2023-03-04T15:41:29;13.18;;;1.98;;
41739;SDS011;27422;52.444;13.300;2023-03-04T15:43:54;13.02;;;1.95;;
41739;SDS011;27422;52.444;13.300;2023-03-04T15:46:20;8.85;;;2.00;;
41739;SDS011;27422;52.444;13.300;2023-03-04T15:48:46;12.90;;;2.15;;
41739;SDS011;27422;52.444;13.300;2023-03-04T15:51:13;12.93;;;2.13;;
41739;SDS011;27422;52.444;13.300;2023-03-04T15:53:49;8.57;;;1.55;;
41739;SDS011;27422;52.444;13.300;2023-03-04T15:56:17;11.15;;;1.67;;
41739;SDS011;27422;52.444;13.300;2023-03-04T16:01:13;11.88;;;1.75;;
41739;SDS011;27422;52.444;13.300;2023-03-04T16:03:40;12.75;;;1.55;;
41739;SDS011;27422;52.444;13.300;2023-03-04T16:06:07;10.57;;;1.38;;
41739;SDS011;27422;52.444;13.300;2023-03-04T16:08:34;11.98;;;1.90;;
41739;SDS011;27422;52.444;13.300;2023-03-04T16:11:00;10.00;;;1.73;;
41739;SDS011;27422;52.444;13.300;2023-03-04T16:13:25;10.23;;;2.38;;
41739;SDS011;27422;52.444;13.300;2023-03-04T16:15:51;10.38;;;1.80;;
41739;SDS011;27422;52.444;13.300;2023-03-04T16:18:16;6.50;;;1.50;;
41739;SDS011;27422;52.444;13.300;2023-03-04T16:20:42;11.80;;;1.70;;
41739;SDS011;27422;52.444;13.300;2023-03-04T16:23:12;10.63;;;2.30;;
41739;SDS011;27422;52.444;13.300;2023-03-04T16:25:44;8.57;;;1.48;;
41739;SDS011;27422;52.444;13.300;2023-03-04T16:28:11;10.00;;;2.15;;
41739;SDS011;27422;52.444;13.300;2023-03-04T16:30:36;9.70;;;2.13;;
41739;SDS011;27422;52.444;13.300;2023-03-04T16:33:02;6.88;;;1.70;;
41739;SDS011;27422;52.444;13.300;2023-03-04T16:35:27;11.88;;;1.42;;
41739;SDS011;27422;52.444;13.300;2023-03-04T16:37:53;7.05;;;1.63;;
41739;SDS011;27422;52.444;13.300;2023-03-04T16:40:21;10.40;;;1.63;;